createdAt,value
2022-12-09T00:01:11.645Z,4.47
2022-12-09T00:03:40.499Z,4.48
2022-12-09T00:06:10.388Z,4.40
2022-12-09T00:08:38.715Z,4.49
2022-12-09T00:11:07.428Z,4.66
2022-12-09T00:13:36.056Z,4.72
2022-12-09T00:16:08.666Z,4.82
2022-12-09T00:18:37.564Z,4.93
2022-12-09T00:21:13.455Z,4.70
2022-12-09T00:23:42.029Z,4.74
2022-12-09T00:26:10.503Z,4.91
2022-12-09T00:28:39.519Z,5.06
2022-12-09T00:31:10.017Z,5.07
2022-12-09T00:33:38.229Z,5.00
2022-12-09T00:36:07.366Z,4.66
2022-12-09T00:38:35.649Z,4.62
2022-12-09T00:41:04.099Z,4.95
2022-12-09T00:43:32.741Z,5.11
2022-12-09T00:46:01.495Z,5.18
2022-12-09T00:48:34.325Z,5.17
2022-12-09T00:51:02.886Z,5.03
2022-12-09T00:53:31.189Z,4.73
2022-12-09T00:55:59.693Z,4.57
2022-12-09T00:58:28.290Z,4.28
2022-12-09T01:00:56.758Z,4.02
2022-12-09T01:03:25.355Z,4.29
2022-12-09T01:05:56.080Z,4.32
2022-12-09T01:08:24.372Z,4.36
2022-12-09T01:10:52.717Z,4.55
2022-12-09T01:13:21.148Z,4.21
2022-12-09T01:15:49.464Z,4.13
2022-12-09T01:18:17.864Z,3.61
2022-12-09T01:20:46.160Z,3.50
2022-12-09T01:23:15.790Z,3.74
2022-12-09T01:25:44.231Z,3.90
2022-12-09T01:28:12.599Z,3.74
2022-12-09T01:30:40.883Z,3.87
2022-12-09T01:33:09.916Z,3.94
2022-12-09T01:35:41.550Z,3.91
2022-12-09T01:38:10.112Z,4.08
2022-12-09T01:40:39.722Z,3.98
2022-12-09T01:43:14.869Z,3.94
2022-12-09T01:45:44.169Z,4.05
2022-12-09T01:48:14.689Z,4.06
2022-12-09T01:50:48.023Z,3.96
2022-12-09T01:53:17.515Z,3.60
2022-12-09T01:55:47.464Z,3.60
2022-12-09T01:58:16.136Z,3.75
2022-12-09T02:00:44.588Z,4.03
2022-12-09T02:03:13.727Z,4.18
2022-12-09T02:05:42.718Z,4.20
2022-12-09T02:08:13.187Z,4.18
2022-12-09T02:10:48.305Z,3.90
2022-12-09T02:13:24.627Z,4.19
2022-12-09T02:15:55.250Z,4.10
2022-12-09T02:18:26.944Z,4.10
2022-12-09T02:20:58.821Z,4.25
2022-12-09T02:23:31.361Z,4.15
2022-12-09T02:26:06.990Z,3.95
2022-12-09T02:29:04.451Z,4.09
2022-12-09T02:31:45.452Z,4.04
2022-12-09T02:34:18.588Z,4.11
2022-12-09T02:36:55.178Z,4.15
2022-12-09T02:39:27.702Z,3.87
2022-12-09T02:41:57.821Z,3.84
2022-12-09T02:44:26.962Z,3.94
2022-12-09T02:46:56.355Z,4.01
2022-12-09T02:49:26.840Z,4.04
2022-12-09T02:51:55.948Z,4.17
2022-12-09T02:54:25.682Z,4.02
2022-12-09T02:56:58.525Z,4.18
2022-12-09T02:59:26.877Z,4.35
2022-12-09T03:02:01.889Z,4.17
2022-12-09T03:04:32.991Z,4.19
2022-12-09T03:07:12.716Z,4.03
2022-12-09T03:09:43.817Z,4.07
2022-12-09T03:12:13.282Z,4.35
2022-12-09T03:14:43.249Z,4.40
2022-12-09T03:17:14.974Z,4.29
2022-12-09T03:19:47.263Z,4.23
2022-12-09T03:22:18.250Z,4.38
2022-12-09T03:24:50.905Z,4.15
2022-12-09T03:27:26.059Z,4.11
2022-12-09T03:29:55.181Z,4.12
2022-12-09T03:32:26.750Z,4.25
2022-12-09T03:35:01.081Z,4.15
2022-12-09T03:37:29.747Z,4.01
2022-12-09T03:39:59.749Z,3.87
2022-12-09T03:42:32.492Z,3.85
2022-12-09T03:45:03.547Z,3.85
2022-12-09T03:47:31.977Z,3.67
2022-12-09T03:50:01.743Z,3.70
2022-12-09T03:52:33.754Z,3.93
2022-12-09T03:55:06.874Z,3.56
2022-12-09T03:57:37.684Z,3.66
2022-12-09T04:00:08.184Z,3.55
2022-12-09T04:02:36.963Z,3.65
2022-12-09T04:05:08.051Z,3.58
2022-12-09T04:07:36.600Z,3.54
2022-12-09T04:10:06.651Z,3.68
2022-12-09T04:12:35.212Z,3.52
2022-12-09T04:15:03.526Z,3.85
2022-12-09T04:17:32.072Z,3.91
2022-12-09T04:20:00.688Z,3.58
2022-12-09T04:22:30.708Z,3.91
2022-12-09T04:24:59.051Z,3.98
2022-12-09T04:27:27.508Z,3.92
2022-12-09T04:29:55.814Z,4.12
2022-12-09T04:32:24.528Z,4.18
2022-12-09T04:34:53.136Z,4.17
2022-12-09T04:37:21.475Z,4.23
2022-12-09T04:39:51.396Z,3.97
2022-12-09T04:42:19.889Z,3.76
2022-12-09T04:44:48.217Z,3.92
2022-12-09T04:47:16.930Z,4.04
2022-12-09T04:49:45.440Z,4.07
2022-12-09T04:52:13.723Z,4.13
2022-12-09T04:54:42.313Z,3.91
2022-12-09T04:57:12.481Z,4.06
2022-12-09T04:59:40.842Z,3.96
2022-12-09T05:02:09.241Z,4.09
2022-12-09T05:04:37.863Z,4.07
2022-12-09T05:07:06.464Z,3.94
2022-12-09T05:09:35.310Z,3.96
2022-12-09T05:12:04.173Z,3.72
2022-12-09T05:14:33.923Z,3.95
2022-12-09T05:17:03.812Z,3.90
2022-12-09T05:19:32.227Z,3.55
2022-12-09T05:22:00.620Z,3.68
2022-12-09T05:24:29.004Z,3.81
2022-12-09T05:26:57.612Z,3.31
2022-12-09T05:29:25.969Z,3.55
2022-12-09T05:31:56.014Z,3.32
2022-12-09T05:34:24.499Z,3.41
2022-12-09T05:36:53.610Z,3.30
2022-12-09T05:39:22.139Z,3.40
2022-12-09T05:41:50.631Z,3.76
2022-12-09T05:44:18.992Z,4.03
2022-12-09T05:46:47.695Z,4.04
2022-12-09T05:49:17.714Z,4.34
2022-12-09T05:51:46.163Z,4.42
2022-12-09T05:54:14.510Z,4.36
2022-12-09T05:56:47.873Z,4.42
2022-12-09T05:59:16.935Z,4.32
2022-12-09T06:01:45.283Z,4.51
2022-12-09T06:04:13.937Z,4.52
2022-12-09T06:06:44.269Z,4.55
2022-12-09T06:09:13.285Z,4.23
2022-12-09T06:11:42.395Z,4.13
2022-12-09T06:14:12.077Z,4.03
2022-12-09T06:16:40.668Z,4.13
2022-12-09T06:19:11.482Z,4.53
2022-12-09T06:21:40.997Z,4.66
2022-12-09T06:24:11.710Z,4.46
2022-12-09T06:26:40.069Z,4.52
2022-12-09T06:29:08.682Z,4.60
2022-12-09T06:31:37.246Z,4.60
2022-12-09T06:34:06.108Z,4.69
2022-12-09T06:36:34.579Z,4.54
2022-12-09T06:39:10.200Z,4.62
2022-12-09T06:41:41.449Z,4.26
2022-12-09T06:44:10.453Z,4.56
2022-12-09T06:46:39.120Z,4.41
2022-12-09T06:49:07.976Z,4.64
2022-12-09T06:51:36.487Z,4.79
2022-12-09T06:54:07.086Z,4.96
2022-12-09T06:56:35.478Z,5.06
2022-12-09T06:59:08.639Z,5.07
2022-12-09T07:01:37.953Z,4.80
2022-12-09T07:04:07.734Z,4.81
2022-12-09T07:06:38.317Z,4.88
2022-12-09T07:09:08.918Z,4.85
2022-12-09T07:11:37.808Z,4.91
2022-12-09T07:14:06.219Z,4.92
2022-12-09T07:16:36.957Z,4.88
2022-12-09T07:19:06.252Z,4.72
2022-12-09T07:21:35.222Z,5.02
2022-12-09T07:24:04.688Z,4.66
2022-12-09T07:26:33.633Z,4.91
2022-12-09T07:29:03.110Z,4.67
2022-12-09T07:31:31.974Z,5.05
2022-12-09T07:34:03.033Z,5.17
2022-12-09T07:36:33.039Z,5.02
2022-12-09T07:39:03.280Z,5.18
2022-12-09T07:41:31.819Z,5.39
2022-12-09T07:44:00.488Z,5.23
2022-12-09T07:46:29.297Z,4.95
2022-12-09T07:48:58.667Z,4.82
2022-12-09T07:51:29.564Z,4.96
2022-12-09T07:53:58.665Z,5.34
2022-12-09T07:56:28.383Z,5.38
2022-12-09T07:58:57.409Z,5.39
2022-12-09T08:01:30.134Z,5.13
2022-12-09T08:03:59.378Z,5.10
2022-12-09T08:06:30.737Z,5.22
2022-12-09T08:09:00.698Z,5.25
2022-12-09T08:11:31.028Z,5.46
2022-12-09T08:14:07.224Z,5.41
2022-12-09T08:16:37.572Z,5.20
2022-12-09T08:19:06.241Z,5.15
2022-12-09T08:21:36.775Z,4.73
2022-12-09T08:24:07.876Z,4.73
2022-12-09T08:26:37.504Z,4.54
2022-12-09T08:29:09.924Z,4.46
2022-12-09T08:31:41.626Z,4.27
2022-12-09T08:34:11.137Z,4.73
2022-12-09T08:36:41.126Z,4.91
2022-12-09T08:39:10.942Z,4.83
2022-12-09T08:41:40.162Z,4.47
2022-12-09T08:44:11.368Z,4.15
2022-12-09T08:46:42.054Z,4.71
2022-12-09T08:49:11.355Z,4.16
2022-12-09T08:51:41.941Z,4.22
2022-12-09T08:54:10.717Z,4.29
2022-12-09T08:56:39.483Z,4.41
2022-12-09T08:59:08.350Z,4.29
2022-12-09T09:01:37.274Z,4.84
2022-12-09T09:04:08.083Z,4.32
2022-12-09T09:06:37.428Z,4.35
2022-12-09T09:09:10.876Z,4.72
2022-12-09T09:11:39.853Z,4.08
2022-12-09T09:14:10.897Z,4.22
2022-12-09T09:16:39.822Z,4.06
2022-12-09T09:19:08.886Z,4.07
2022-12-09T09:21:37.837Z,4.44
2022-12-09T09:24:12.094Z,4.43
2022-12-09T09:26:42.590Z,4.17
2022-12-09T09:29:12.677Z,4.33
2022-12-09T09:31:41.949Z,4.79
2022-12-09T09:34:11.282Z,4.46
2022-12-09T09:36:41.614Z,4.42
2022-12-09T09:39:11.853Z,3.93
2022-12-09T09:41:45.502Z,4.44
2022-12-09T09:44:20.505Z,4.26
2022-12-09T09:46:50.709Z,4.50
2022-12-09T09:49:24.532Z,4.10
2022-12-09T09:51:53.396Z,4.38
2022-12-09T09:54:23.487Z,4.17
2022-12-09T09:56:55.940Z,4.20
2022-12-09T09:59:38.546Z,4.09
2022-12-09T10:02:18.332Z,4.44
2022-12-09T10:04:55.669Z,4.14
2022-12-09T10:07:29.150Z,4.17
2022-12-09T10:10:05.579Z,4.25
2022-12-09T10:12:41.627Z,4.28
2022-12-09T10:15:13.345Z,4.01
2022-12-09T10:17:48.923Z,4.32
2022-12-09T10:20:19.796Z,3.98
2022-12-09T10:22:51.542Z,4.60
2022-12-09T10:25:24.978Z,4.32
2022-12-09T10:27:56.807Z,4.54
2022-12-09T10:30:29.941Z,4.34
2022-12-09T10:33:02.133Z,4.48
2022-12-09T10:35:32.939Z,4.98
2022-12-09T10:38:08.293Z,5.17
2022-12-09T10:40:46.893Z,4.47
2022-12-09T10:43:38.864Z,4.07
2022-12-09T10:46:19.625Z,4.09
2022-12-09T10:48:54.076Z,4.25
2022-12-09T10:51:25.956Z,4.35
2022-12-09T10:53:56.840Z,4.14
2022-12-09T10:56:28.861Z,4.35
2022-12-09T10:59:10.704Z,4.58
2022-12-09T11:01:50.829Z,4.83
2022-12-09T11:04:25.124Z,5.00
2022-12-09T11:06:59.392Z,5.04
2022-12-09T11:09:32.244Z,4.84
2022-12-09T11:12:03.959Z,4.70
2022-12-09T11:14:35.863Z,4.69
2022-12-09T11:17:15.897Z,5.35
2022-12-09T11:19:47.937Z,5.20
2022-12-09T11:22:24.941Z,5.13
2022-12-09T11:24:56.748Z,5.45
2022-12-09T11:27:32.613Z,5.87
2022-12-09T11:30:12.714Z,5.53
2022-12-09T11:32:59.819Z,5.54
2022-12-09T11:35:35.724Z,5.93
2022-12-09T11:38:14.138Z,5.61
2022-12-09T11:40:42.468Z,6.18
2022-12-09T11:43:12.089Z,5.94
2022-12-09T11:45:41.432Z,6.06
2022-12-09T11:48:32.833Z,5.59
2022-12-09T11:51:03.422Z,6.08
2022-12-09T11:53:33.090Z,5.38
2022-12-09T11:56:05.630Z,5.79
2022-12-09T11:58:40.795Z,5.76
2022-12-09T12:01:13.303Z,6.05
2022-12-09T12:03:47.286Z,6.10
2022-12-09T12:06:20.629Z,6.27
2022-12-09T12:08:52.128Z,6.49
2022-12-09T12:11:22.585Z,6.05
2022-12-09T12:13:55.435Z,5.87
2022-12-09T12:16:28.569Z,5.47
2022-12-09T12:19:01.990Z,6.09
2022-12-09T12:21:42.974Z,6.39
2022-12-09T12:24:33.453Z,6.32
2022-12-09T12:27:11.975Z,6.16
2022-12-09T12:29:47.657Z,6.51
2022-12-09T12:32:25.113Z,6.27
2022-12-09T12:35:04.606Z,6.23
2022-12-09T12:37:43.581Z,6.50
2022-12-09T12:40:22.011Z,6.49
2022-12-09T12:43:21.081Z,6.25
2022-12-09T12:46:10.445Z,6.11
2022-12-09T12:48:46.107Z,6.37
2022-12-09T12:51:22.435Z,6.55
2022-12-09T12:53:56.462Z,6.40
2022-12-09T12:56:25.866Z,6.60
2022-12-09T12:59:02.996Z,6.50
2022-12-09T13:01:35.169Z,6.51
2022-12-09T13:04:13.464Z,6.88
2022-12-09T13:06:45.624Z,6.48
2022-12-09T13:09:16.319Z,6.51
2022-12-09T13:11:54.482Z,6.86
2022-12-09T13:14:24.704Z,6.63
2022-12-09T13:16:54.433Z,6.74
2022-12-09T13:19:26.842Z,6.81
2022-12-09T13:21:55.480Z,6.72
2022-12-09T13:24:27.401Z,6.49
2022-12-09T13:27:00.839Z,6.65
2022-12-09T13:29:36.882Z,6.74
2022-12-09T13:32:19.931Z,6.40
2022-12-09T13:34:52.597Z,6.39
2022-12-09T13:37:34.519Z,6.56
2022-12-09T13:40:04.065Z,6.72
2022-12-09T13:42:56.354Z,6.80
2022-12-09T13:45:30.379Z,6.41
2022-12-09T13:48:02.270Z,6.73
2022-12-09T13:50:36.270Z,6.47
2022-12-09T13:53:06.232Z,6.50
2022-12-09T13:55:40.879Z,6.88
2022-12-09T13:58:30.703Z,6.85
2022-12-09T14:01:04.740Z,6.71
2022-12-09T14:03:36.068Z,6.38
2022-12-09T14:06:07.953Z,6.42
2022-12-09T14:08:41.583Z,6.50
2022-12-09T14:11:47.073Z,6.54
2022-12-09T14:14:46.884Z,6.65
2022-12-09T14:17:21.721Z,6.66
2022-12-09T14:19:56.328Z,6.58
2022-12-09T14:22:35.029Z,6.65
2022-12-09T14:25:50.959Z,6.62
2022-12-09T14:28:37.677Z,6.90
2022-12-09T14:31:08.986Z,6.68
2022-12-09T14:33:39.202Z,7.08
2022-12-09T14:36:21.517Z,7.07
2022-12-09T14:39:22.573Z,7.16
2022-12-09T14:41:50.259Z,7.11
2022-12-09T14:44:24.551Z,7.18
2022-12-09T14:46:54.581Z,7.24
2022-12-09T14:49:23.640Z,7.23
2022-12-09T14:51:53.963Z,7.02
2022-12-09T14:54:25.375Z,7.17
2022-12-09T14:56:58.032Z,6.82
2022-12-09T14:59:28.808Z,6.87
2022-12-09T15:01:58.633Z,6.77
2022-12-09T15:04:30.940Z,6.76
2022-12-09T15:07:26.062Z,6.92
2022-12-09T15:09:56.289Z,7.01
2022-12-09T15:12:28.344Z,7.05
2022-12-09T15:14:58.927Z,7.04
2022-12-09T15:17:27.934Z,7.07
2022-12-09T15:20:00.773Z,7.17
2022-12-09T15:22:32.728Z,7.32
2022-12-09T15:25:03.154Z,7.26
2022-12-09T15:27:31.705Z,7.36
2022-12-09T15:29:59.961Z,7.44
2022-12-09T15:32:30.358Z,7.49
2022-12-09T15:35:17.255Z,7.52
2022-12-09T15:37:47.656Z,7.60
2022-12-09T15:40:22.137Z,7.56
2022-12-09T15:42:53.204Z,7.24
2022-12-09T15:45:23.704Z,7.33
2022-12-09T15:47:54.862Z,7.28
2022-12-09T15:50:25.154Z,7.33
2022-12-09T15:52:56.306Z,7.25
2022-12-09T15:55:27.290Z,7.33
2022-12-09T15:57:58.086Z,7.27
2022-12-09T16:00:26.499Z,7.40
2022-12-09T16:02:54.872Z,7.33
2022-12-09T16:05:25.241Z,7.46
2022-12-09T16:07:57.280Z,7.50
2022-12-09T16:10:27.763Z,7.61
2022-12-09T16:13:07.421Z,7.58
2022-12-09T16:15:47.780Z,7.61
2022-12-09T16:18:19.702Z,7.63
2022-12-09T16:21:02.172Z,7.68
2022-12-09T16:23:32.079Z,7.74
2022-12-09T16:26:07.286Z,7.75
2022-12-09T16:28:36.077Z,7.78
2022-12-09T16:31:17.950Z,7.70
2022-12-09T16:33:49.111Z,7.67
2022-12-09T16:36:20.336Z,7.72
2022-12-09T16:39:24.763Z,7.63
2022-12-09T16:41:58.786Z,7.52
2022-12-09T16:44:31.224Z,7.49
2022-12-09T16:47:11.996Z,7.51
2022-12-09T16:49:41.406Z,7.50
2022-12-09T16:52:13.004Z,7.51
2022-12-09T16:54:43.784Z,7.70
2022-12-09T16:57:16.386Z,7.60
2022-12-09T16:59:45.705Z,7.58
2022-12-09T17:02:18.930Z,7.45
2022-12-09T17:04:47.367Z,7.39
2022-12-09T17:07:15.721Z,7.51
2022-12-09T17:09:45.369Z,7.54
2022-12-09T17:12:13.720Z,7.57
2022-12-09T17:14:42.146Z,7.68
2022-12-09T17:17:10.542Z,7.69
2022-12-09T17:19:38.875Z,7.66
2022-12-09T17:22:07.136Z,7.67
2022-12-09T17:24:35.517Z,7.62
2022-12-09T17:27:05.279Z,7.94
2022-12-09T17:29:33.667Z,7.74
2022-12-09T17:32:02.011Z,7.72
2022-12-09T17:34:30.337Z,7.77
2022-12-09T17:36:59.139Z,7.76
2022-12-09T17:39:27.429Z,7.50
2022-12-09T17:41:55.827Z,7.51
2022-12-09T17:44:25.535Z,7.59
2022-12-09T17:46:53.869Z,7.68
2022-12-09T17:49:22.370Z,7.70
2022-12-09T17:51:50.635Z,7.69
2022-12-09T17:54:18.907Z,7.91
2022-12-09T17:56:47.382Z,7.82
2022-12-09T17:59:16.839Z,7.79
2022-12-09T18:01:47.210Z,7.83
2022-12-09T18:04:15.846Z,8.06
2022-12-09T18:06:45.602Z,7.82
2022-12-09T18:09:15.698Z,7.82
2022-12-09T18:11:44.734Z,7.85
2022-12-09T18:14:13.000Z,7.89
2022-12-09T18:16:41.357Z,7.85
2022-12-09T18:19:15.241Z,7.76
2022-12-09T18:21:43.818Z,7.78
2022-12-09T18:24:12.260Z,7.85
2022-12-09T18:26:42.243Z,8.20
2022-12-09T18:29:11.387Z,7.85
2022-12-09T18:31:39.940Z,7.49
2022-12-09T18:34:08.292Z,7.26
2022-12-09T18:36:37.995Z,7.32
2022-12-09T18:39:06.617Z,7.05
2022-12-09T18:41:35.658Z,7.30
2022-12-09T18:44:05.942Z,7.06
2022-12-09T18:46:36.445Z,6.50
2022-12-09T18:49:05.403Z,6.94
2022-12-09T18:51:33.868Z,6.64
2022-12-09T18:54:05.394Z,6.88
2022-12-09T18:56:34.166Z,7.30
2022-12-09T18:59:07.495Z,7.34
2022-12-09T19:01:39.405Z,7.33
2022-12-09T19:04:11.448Z,7.05
2022-12-09T19:06:41.452Z,7.22
2022-12-09T19:09:14.996Z,6.79
2022-12-09T19:11:44.297Z,7.27
2022-12-09T19:14:14.044Z,7.64
2022-12-09T19:16:43.179Z,7.18
2022-12-09T19:19:13.384Z,7.28
2022-12-09T19:21:41.895Z,7.12
2022-12-09T19:24:15.001Z,6.63
2022-12-09T19:26:43.861Z,6.49
2022-12-09T19:29:13.332Z,6.56
2022-12-09T19:31:43.258Z,6.39
2022-12-09T19:34:14.416Z,6.45
2022-12-09T19:36:43.611Z,6.19
2022-12-09T19:39:14.260Z,6.35
2022-12-09T19:41:42.982Z,6.73
2022-12-09T19:44:11.980Z,7.00
2022-12-09T19:46:40.777Z,6.98
2022-12-09T19:49:09.456Z,7.12
2022-12-09T19:51:37.758Z,7.26
2022-12-09T19:54:06.346Z,7.39
2022-12-09T19:56:35.962Z,7.51
2022-12-09T19:59:05.050Z,7.50
2022-12-09T20:01:34.913Z,7.51
2022-12-09T20:04:19.064Z,7.70
2022-12-09T20:06:48.082Z,7.64
2022-12-09T20:09:24.046Z,7.57
2022-12-09T20:11:54.200Z,7.64
2022-12-09T20:14:22.481Z,7.68
2022-12-09T20:16:50.817Z,7.64
2022-12-09T20:19:19.828Z,7.62
2022-12-09T20:21:48.850Z,7.33
2022-12-09T20:24:17.128Z,7.02
2022-12-09T20:26:45.441Z,7.50
2022-12-09T20:29:15.267Z,7.37
2022-12-09T20:31:44.165Z,7.10
2022-12-09T20:34:14.888Z,7.40
2022-12-09T20:36:43.995Z,7.43
2022-12-09T20:39:15.223Z,7.54
2022-12-09T20:41:44.500Z,7.61
2022-12-09T20:44:14.923Z,7.72
2022-12-09T20:46:47.027Z,7.69
2022-12-09T20:49:15.370Z,7.50
2022-12-09T20:51:45.263Z,6.89
2022-12-09T20:54:14.687Z,7.04
2022-12-09T20:56:43.108Z,7.18
2022-12-09T20:59:12.508Z,7.53
2022-12-09T21:01:43.605Z,7.52
2022-12-09T21:04:11.959Z,7.62
2022-12-09T21:06:41.398Z,7.61
2022-12-09T21:09:11.514Z,7.63
2022-12-09T21:11:40.125Z,7.77
2022-12-09T21:14:08.669Z,7.75
2022-12-09T21:16:39.647Z,7.57
2022-12-09T21:19:14.549Z,7.52
2022-12-09T21:21:46.673Z,7.59
2022-12-09T21:24:15.699Z,7.63
2022-12-09T21:26:44.370Z,7.67
2022-12-09T21:29:12.991Z,7.74
2022-12-09T21:31:42.896Z,7.77
2022-12-09T21:34:12.905Z,7.74
2022-12-09T21:36:43.396Z,7.78
2022-12-09T21:39:13.218Z,7.78
2022-12-09T21:41:41.940Z,7.76
2022-12-09T21:44:14.330Z,7.76
2022-12-09T21:46:43.056Z,7.79
2022-12-09T21:49:13.101Z,7.90
2022-12-09T21:51:41.608Z,7.95
2022-12-09T21:54:09.923Z,7.88
2022-12-09T21:56:38.531Z,7.91
2022-12-09T21:59:07.634Z,7.94
2022-12-09T22:01:37.631Z,7.87
2022-12-09T22:04:07.747Z,7.84
2022-12-09T22:06:37.607Z,7.90
2022-12-09T22:09:07.844Z,7.86
2022-12-09T22:11:37.898Z,7.77
2022-12-09T22:14:07.292Z,7.70
2022-12-09T22:16:37.402Z,7.79
2022-12-09T22:19:08.158Z,7.84
2022-12-09T22:21:37.775Z,7.87
2022-12-09T22:24:07.697Z,7.91
2022-12-09T22:26:36.429Z,7.42
2022-12-09T22:29:05.696Z,7.75
2022-12-09T22:31:36.454Z,7.79
2022-12-09T22:34:06.555Z,7.69
2022-12-09T22:36:37.027Z,7.49
2022-12-09T22:39:07.737Z,7.51
2022-12-09T22:41:36.303Z,7.55
2022-12-09T22:44:04.854Z,7.52
2022-12-09T22:46:34.628Z,7.45
2022-12-09T22:49:04.717Z,7.13
2022-12-09T22:51:34.820Z,7.15
2022-12-09T22:54:05.298Z,7.07
2022-12-09T22:56:35.012Z,7.07
2022-12-09T22:59:03.425Z,7.08
2022-12-09T23:01:33.214Z,6.84
2022-12-09T23:04:02.309Z,6.82
2022-12-09T23:06:31.087Z,6.88
2022-12-09T23:08:59.390Z,6.95
2022-12-09T23:11:29.376Z,6.85
2022-12-09T23:13:59.592Z,6.73
2022-12-09T23:16:28.269Z,6.67
2022-12-09T23:18:58.021Z,6.71
2022-12-09T23:21:28.195Z,6.79
2022-12-09T23:23:58.017Z,6.86
2022-12-09T23:26:28.289Z,6.68
2022-12-09T23:29:00.820Z,6.87
2022-12-09T23:31:30.809Z,6.85
2022-12-09T23:33:59.525Z,6.82
2022-12-09T23:36:31.597Z,6.89
2022-12-09T23:39:00.607Z,6.87
2022-12-09T23:41:29.307Z,6.75
2022-12-09T23:43:57.596Z,6.95
2022-12-09T23:46:30.692Z,6.90
2022-12-09T23:48:59.061Z,7.06
2022-12-09T23:51:30.438Z,6.81
2022-12-09T23:54:00.465Z,7.01
2022-12-09T23:56:30.332Z,6.92
2022-12-09T23:59:00.088Z,7.20
